ナンディ国際空港の過去48時間の天気

ナンディ国際空港 (Nandi)

現在時刻: 9/23 09:24 +12 (9/22 21:24 UTC) 以下の時間は現地時間です。

過去48時間のMETAR気象情報
時間 風向 風速(m/s) 視程 気温(℃) 湿度(%) 気圧(hPa) 天気現象
23 09:00 南東 8 10km以上 24 69 1020
23 08:00 東南東 6 10km以上 23 69 1020
23 07:00 東南東 4 10km以上 21 73 1020
23 06:00 東南東 4 10km以上 19 83 1019
23 05:00 南東 6 10km以上 20 78 1019
23 04:00 3 10km以上 19 83 1019
23 03:00 南東 6 10km以上 20 83 1018
23 02:00 南東 5 10km以上 20 78 1018
23 01:00 南東 3 10km以上 19 83 1019
23 00:00 南東 4 10km以上 20 78 1019
22 23:00 南南東 4 10km以上 21 73 1020
22 22:00 南東 5 10km以上 21 73 1020
22 21:00 南東 3 10km以上 21 73 1020
22 20:00 南南東 3 10km以上 21 73 1019
22 19:00 東南東 5 10km以上 22 73 1018
22 18:00 南東 7 10km以上 24 65 1018
22 17:00 東南東 7 10km以上 25 61 1017
22 16:00 南南東 7 10km以上 26 54 1016
22 15:00 南東 8 10km以上 27 51 1016
22 14:00 南東 7 10km以上 27 54 1016
22 13:00 南東 9 10km以上 27 54 1017
22 12:00 南東 9 10km以上 25 61 1017
22 11:00 東南東 7 10km以上 26 58 1018
22 10:00 南東 6 10km以上 25 65 1018
22 09:00 南東 6 10km以上 23 73 1019
22 08:00 南東 5 10km以上 22 78 1018
22 07:00 南東 4 10km以上 21 83 1018
22 06:00 南東 3 10km以上 20 83 1016
22 05:00 南東 3 10km以上 20 83 1016
22 04:00 南東 5 10km以上 20 83 1016
22 03:00 南東 5 10km以上 20 83 1015
22 02:00 南南東 3 10km以上 21 78 1015
22 01:00 南東 5 10km以上 21 78 1016
22 00:00 南東 3 10km以上 21 78 1016
21 23:00 南東 4 10km以上 21 73 1016
21 22:00 東南東 3 10km以上 22 73 1016
21 21:00 東南東 5 10km以上 22 69 1016
21 20:00 南東 4 10km以上 22 65 1016
21 19:00 南東 4 10km以上 24 61 1015
21 18:00 南東 5 10km以上 26 54 1014
21 17:00 5 10km以上 27 51 1013
21 16:00 5 10km以上 28 42 1013
21 15:00 南東 4 10km以上 29 45 1013
21 14:00 南南東 4 10km以上 29 45 1013
21 13:00 5 10km以上 28 48 1014
21 12:00 東南東 5 10km以上 28 48 1015
21 11:00 南東 5 10km以上 27 54 1016
21 10:00 南東 6 10km以上 26 58 1016
NFFN 222100Z 13015KT 9999 FEW030 24/18 Q1020 NOSIG
NFFN 222000Z 12012KT 9999 FEW030 23/17 Q1020 NOSIG
NFFN 221900Z 12008KT 9999 FEW030 21/16 Q1020 NOSIG
NFFN 221800Z 11008KT 9999 FEW030 19/16 Q1019 NOSIG
NFFN 221700Z 13011KT 9999 FEW030 20/16 Q1019 NOSIG
NFFN 221600Z 10005KT 9999 FEW030 19/16 Q1019 NOSIG
NFFN 221500Z 13011KT 9999 FEW030 20/17 Q1018 NOSIG
NFFN 221400Z 13010KT 9999 FEW030 20/16 Q1018 NOSIG
NFFN 221300Z 14006KT 9999 FEW030 19/16 Q1019 NOSIG
NFFN 221200Z 13008KT 9999 FEW030 20/16 Q1019 NOSIG
NFFN 221100Z 15008KT 9999 FEW030 21/16 Q1020 NOSIG
NFFN 221000Z 13010KT 9999 FEW030 21/16 Q1020 NOSIG
NFFN 220900Z 13006KT 9999 FEW030 21/16 Q1020 NOSIG
NFFN 220800Z 15006KT 9999 FEW030 21/16 Q1019 NOSIG
NFFN 220700Z 12010KT 9999 FEW030 SCT120 22/17 Q1018 NOSIG
NFFN 220600Z 13013KT 9999 FEW030 SCT120 24/17 Q1018 NOSIG
NFFN 220500Z 11013KT 9999 SCT030 BKN120 25/17 Q1017 NOSIG
NFFN 220400Z 15013KT 110V190 9999 SCT030 BKN120 26/16 Q1016 NOSIG
NFFN 220300Z 14015KT 080V190 9999 SCT030 BKN120 27/16 Q1016 NOSIG
NFFN 220200Z 13013G26KT 9999 SCT030 BKN120 27/17 Q1016 NOSIG
NFFN 220100Z 13018KT 100V170 9999 SCT028 SCT048 BKN120 27/17 Q1017 NOSIG
NFFN 220000Z 14017KT 110V170 9999 SCT028 SCT048 BKN120 25/17 Q1017 NOSIG
NFFN 212300Z 12014KT 9999 FEW028 SCT048 BKN110 26/17 Q1018 NOSIG
NFFN 212200Z 13012KT 9999 FEW028 SCT048 BKN110 25/18 Q1018 NOSIG
NFFN 212100Z 13011KT 9999 FEW026 SCT048 BKN110 23/18 Q1019 NOSIG
NFFN 212000Z 14010KT 9999 FEW028 SCT048 BKN110 22/18 Q1018 NOSIG
NFFN 211900Z 14007KT 9999 FEW028 SCT048 21/18 Q1018 NOSIG
NFFN 211800Z 14006KT 9999 FEW030 BKN050 20/17 Q1016 NOSIG
NFFN 211700Z 14006KT 9999 FEW030 BKN050 20/17 Q1016 NOSIG
NFFN 211600Z 14010KT 9999 FEW030 BKN050 20/17 Q1016 NOSIG
NFFN 211500Z 13009KT 9999 FEW030 SCT050 20/17 Q1015 NOSIG
NFFN 211400Z 16006KT 9999 FEW030 21/17 Q1015 NOSIG
NFFN 211300Z 14009KT 9999 FEW030 21/17 Q1016 NOSIG
NFFN 211200Z 14005KT 9999 FEW030 21/17 Q1016 NOSIG
NFFN 211100Z 14007KT 9999 FEW030 21/16 Q1016 NOSIG
NFFN 211000Z 12005KT 9999 FEW030 22/17 Q1016 NOSIG
NFFN 210900Z 12010KT 9999 FEW030 22/16 Q1016 NOSIG
NFFN 210800Z 14007KT 9999 FEW030 SCT300 22/15 Q1016 NOSIG
NFFN 210700Z 13008KT 9999 FEW030 BKN300 24/16 Q1015 NOSIG
NFFN 210600Z 14009KT 110V170 9999 FEW030 BKN300 26/16 Q1014 NOSIG
NFFN 210500Z 18010KT 140V230 9999 FEW030 BKN300 27/16 Q1013 NOSIG
NFFN 210400Z 18010KT 150V220 9999 FEW030 BKN300 28/14 Q1013 NOSIG
NFFN 210300Z 14007KT 9999 FEW030 BKN300 29/16 Q1013 NOSIG
NFFN 210200Z 15008KT 9999 FEW030 BKN300 29/16 Q1013 NOSIG
NFFN 210100Z 19009KT 9999 FEW030 SCT050 BKN300 28/16 Q1014 NOSIG
NFFN 210000Z 12009KT 9999 FEW030 SCT050 BKN300 28/16 Q1015 NOSIG
NFFN 202300Z 13009KT 9999 FEW030 SCT050 BKN300 27/17 Q1016 NOSIG
NFFN 202200Z 13012KT 9999 FEW030 SCT050 BKN300 26/17 Q1016 NOSIG